Time;durP1;ratioP1;P1;durP2;ratioP2;P2;SDS_P1;SDS_P2;PMS_P1;PMS_P2;Temp;Humidity;BMP_temperature;BMP_pressure;BME280_temperature;BME280_humidity;BME280_pressure;Samples;Min_cycle;Max_cycle;Signal;HPM_P1;HPM_P2
2022/10/16 17:26:42;;;;;;;26.60;11.98;;;;;;;;;;5114900;27;20431;-61
2022/10/16 17:29:11;;;;;;;26.38;12.55;;;;;;;;;;5096255;28;20012;-62
2022/10/16 17:31:37;;;;;;;24.52;11.98;;;;;;;;;;5097714;28;20390;-63
2022/10/16 17:34:04;;;;;;;25.42;12.90;;;;;;;;;;5091416;28;20020;-62
2022/10/16 17:36:32;;;;;;;24.00;11.60;;;;;;;;;;5102215;28;20020;-62
2022/10/16 17:39:03;;;;;;;26.52;12.43;;;;;;;;;;5097159;28;20051;-61
2022/10/16 17:41:30;;;;;;;21.58;11.88;;;;;;;;;;5099627;28;20515;-66
2022/10/16 17:43:56;;;;;;;23.85;11.55;;;;;;;;;;5097706;28;20114;-65
2022/10/16 17:46:23;;;;;;;27.85;12.57;;;;;;;;;;5097568;28;20043;-62
2022/10/16 17:48:53;;;;;;;21.88;12.48;;;;;;;;;;5101881;28;20415;-63
2022/10/16 17:51:20;;;;;;;28.75;12.68;;;;;;;;;;5095802;28;20081;-67
2022/10/16 17:53:53;;;;;;;22.98;12.77;;;;;;;;;;5096756;28;20030;-65
2022/10/16 17:56:20;;;;;;;27.77;13.98;;;;;;;;;;5098449;28;20020;-62
2022/10/16 17:58:52;;;;;;;26.63;14.35;;;;;;;;;;5096440;28;20554;-61
2022/10/16 18:01:25;;;;;;;31.25;15.57;;;;;;;;;;5090313;28;20070;-61
2022/10/16 18:03:56;;;;;;;30.30;15.45;;;;;;;;;;5096289;28;20093;-63
2022/10/16 18:06:22;;;;;;;27.38;13.90;;;;;;;;;;5097355;28;20028;-61
2022/10/16 18:08:48;;;;;;;29.33;14.85;;;;;;;;;;5095335;28;20078;-63
2022/10/16 18:11:14;;;;;;;24.80;14.20;;;;;;;;;;5096698;28;20031;-61
2022/10/16 18:13:40;;;;;;;27.33;14.00;;;;;;;;;;5096692;28;20030;-63
2022/10/16 18:16:11;;;;;;;26.10;14.27;;;;;;;;;;5097281;28;20034;-62
2022/10/16 18:18:38;;;;;;;23.80;13.98;;;;;;;;;;5091219;28;20020;-62
2022/10/16 18:21:05;;;;;;;24.45;13.10;;;;;;;;;;5087458;28;20551;-61
2022/10/16 18:23:32;;;;;;;29.25;14.15;;;;;;;;;;5078482;28;20036;-61
2022/10/16 18:25:58;;;;;;;26.13;14.00;;;;;;;;;;5065268;28;20048;-62
2022/10/16 18:28:24;;;;;;;26.52;13.63;;;;;;;;;;5076221;28;20031;-62
2022/10/16 18:30:55;;;;;;;28.95;13.60;;;;;;;;;;5073137;28;20098;-61
2022/10/16 18:33:21;;;;;;;28.30;14.38;;;;;;;;;;5074840;28;20021;-61
2022/10/16 18:35:47;;;;;;;27.45;14.77;;;;;;;;;;5073893;28;20017;-62
2022/10/16 18:38:13;;;;;;;34.08;16.27;;;;;;;;;;5062753;28;20024;-65
2022/10/16 18:40:39;;;;;;;31.52;16.05;;;;;;;;;;5060221;28;20013;-68
2022/10/16 18:43:05;;;;;;;30.30;15.95;;;;;;;;;;5061334;28;20024;-63
2022/10/16 18:45:31;;;;;;;28.35;13.93;;;;;;;;;;5065880;28;20036;-61
2022/10/16 18:47:57;;;;;;;24.42;13.52;;;;;;;;;;5059473;28;20025;-64
2022/10/16 18:50:23;;;;;;;23.95;13.23;;;;;;;;;;5067970;28;20522;-62
2022/10/16 18:52:49;;;;;;;27.63;13.55;;;;;;;;;;5073073;28;20025;-62
2022/10/16 18:55:16;;;;;;;24.70;13.13;;;;;;;;;;5068816;28;20182;-68
2022/10/16 18:57:42;;;;;;;25.58;13.68;;;;;;;;;;5053016;28;20017;-62
2022/10/16 19:00:08;;;;;;;23.48;13.38;;;;;;;;;;5052933;28;20090;-62
2022/10/16 19:02:34;;;;;;;22.45;13.48;;;;;;;;;;5071138;28;20064;-62
2022/10/16 19:05:00;;;;;;;27.05;13.60;;;;;;;;;;5061324;28;20037;-62
2022/10/16 19:07:26;;;;;;;22.25;13.32;;;;;;;;;;5054250;28;20029;-62
2022/10/16 19:09:53;;;;;;;23.45;13.80;;;;;;;;;;5072931;28;20021;-65
2022/10/16 19:12:19;;;;;;;25.30;14.35;;;;;;;;;;5073168;28;20082;-61
2022/10/16 19:14:47;;;;;;;24.52;14.38;;;;;;;;;;5072817;28;20021;-62
2022/10/16 19:17:13;;;;;;;26.27;14.70;;;;;;;;;;5052954;28;20025;-62
2022/10/16 19:19:39;;;;;;;28.45;15.82;;;;;;;;;;5052831;28;20124;-71
2022/10/16 19:22:26;;;;;;;30.05;15.55;;;;;;;;;;5052429;28;20025;-67
2022/10/16 19:24:53;;;;;;;31.63;16.23;;;;;;;;;;5052616;28;20512;-62
2022/10/16 19:27:19;;;;;;;33.05;15.98;;;;;;;;;;5052607;28;20029;-71
2022/10/16 19:29:45;;;;;;;26.17;14.10;;;;;;;;;;5055691;28;20475;-65
2022/10/16 19:32:11;;;;;;;23.60;13.73;;;;;;;;;;5070109;28;20537;-63
2022/10/16 19:34:37;;;;;;;23.92;12.27;;;;;;;;;;5072622;28;20388;-62
2022/10/16 19:37:03;;;;;;;26.02;12.43;;;;;;;;;;5071689;28;20025;-61
2022/10/16 19:39:29;;;;;;;24.75;12.70;;;;;;;;;;5032318;28;20104;-61
2022/10/16 19:41:55;;;;;;;18.65;11.40;;;;;;;;;;5049097;28;20032;-67
2022/10/16 19:44:21;;;;;;;23.10;11.18;;;;;;;;;;5052710;28;20025;-63
2022/10/16 19:46:47;;;;;;;20.10;11.13;;;;;;;;;;5052262;28;20029;-61
2022/10/16 19:49:16;;;;;;;20.23;11.07;;;;;;;;;;5052235;28;20511;-60
2022/10/16 19:51:42;;;;;;;22.10;11.15;;;;;;;;;;5059135;28;20033;-68
2022/10/16 19:54:11;;;;;;;21.92;11.65;;;;;;;;;;5061360;28;20389;-61
2022/10/16 19:56:38;;;;;;;19.38;11.13;;;;;;;;;;5061668;28;20122;-61
2022/10/16 19:59:04;;;;;;;24.83;11.43;;;;;;;;;;5059648;28;20029;-61
2022/10/16 20:01:31;;;;;;;18.90;11.30;;;;;;;;;;5061399;28;20039;-61
2022/10/16 20:03:57;;;;;;;23.00;12.48;;;;;;;;;;5061453;28;20024;-71
2022/10/16 20:06:24;;;;;;;19.95;11.07;;;;;;;;;;5059533;28;20033;-67
2022/10/16 20:08:51;;;;;;;25.67;12.63;;;;;;;;;;5061411;28;20108;-62
2022/10/16 20:11:18;;;;;;;22.23;11.93;;;;;;;;;;5061094;28;20028;-62
2022/10/16 20:13:44;;;;;;;22.50;11.57;;;;;;;;;;5059728;28;20070;-62
2022/10/16 20:16:11;;;;;;;20.58;11.70;;;;;;;;;;5062522;28;20059;-62
2022/10/16 20:18:37;;;;;;;23.70;11.13;;;;;;;;;;5059946;28;20020;-63
2022/10/16 20:21:08;;;;;;;27.55;12.52;;;;;;;;;;5058964;28;20214;-63
2022/10/16 20:23:34;;;;;;;20.77;11.70;;;;;;;;;;5050332;28;20388;-62
2022/10/16 20:26:00;;;;;;;22.45;11.80;;;;;;;;;;5051547;28;20485;-61
2022/10/16 20:28:26;;;;;;;21.95;11.90;;;;;;;;;;5051525;28;20419;-63
2022/10/16 20:30:52;;;;;;;19.10;11.32;;;;;;;;;;5052557;28;20388;-63
2022/10/16 20:33:18;;;;;;;23.23;12.45;;;;;;;;;;5058555;28;20017;-74
2022/10/16 20:35:46;;;;;;;18.60;11.20;;;;;;;;;;5061532;28;20475;-63
2022/10/16 20:38:13;;;;;;;21.33;11.63;;;;;;;;;;5060008;28;20349;-62
2022/10/16 20:40:40;;;;;;;25.13;11.40;;;;;;;;;;5061993;28;20028;-70
2022/10/16 20:43:06;;;;;;;22.45;11.48;;;;;;;;;;5071487;28;20103;-71
2022/10/16 20:45:32;;;;;;;21.98;11.32;;;;;;;;;;5071362;28;20068;-67
2022/10/16 20:47:58;;;;;;;20.88;11.07;;;;;;;;;;5071235;28;20545;-62
2022/10/16 20:50:24;;;;;;;19.83;11.02;;;;;;;;;;5070677;28;20028;-65
2022/10/16 20:52:51;;;;;;;21.38;11.05;;;;;;;;;;5069066;28;20047;-67
2022/10/16 20:55:17;;;;;;;18.67;11.15;;;;;;;;;;5070804;28;20037;-61
2022/10/16 20:57:43;;;;;;;20.45;10.80;;;;;;;;;;5070802;28;20032;-66
2022/10/16 21:00:09;;;;;;;16.90;10.15;;;;;;;;;;5070274;28;20029;-72
2022/10/16 21:02:35;;;;;;;22.67;11.68;;;;;;;;;;5070666;28;20109;-60
2022/10/16 21:05:01;;;;;;;19.63;11.02;;;;;;;;;;5070712;28;20444;-61
2022/10/16 21:07:27;;;;;;;20.50;11.23;;;;;;;;;;5070888;28;20491;-62
2022/10/16 21:09:55;;;;;;;18.15;10.82;;;;;;;;;;5070679;28;20100;-64
2022/10/16 21:17:25;;;;;;;20.55;11.20;;;;;;;;;;5131117;27;20363;-71
2022/10/16 21:19:51;;;;;;;23.38;11.75;;;;;;;;;;5128773;28;20019;-59
2022/10/16 21:22:17;;;;;;;22.40;11.10;;;;;;;;;;5128419;28;20362;-63
2022/10/16 21:24:43;;;;;;;20.48;10.40;;;;;;;;;;5128967;28;20441;-61
2022/10/16 21:27:09;;;;;;;20.50;10.90;;;;;;;;;;5129494;28;20526;-62
2022/10/16 21:29:36;;;;;;;18.80;11.00;;;;;;;;;;5110474;28;20359;-61
2022/10/16 21:32:02;;;;;;;21.90;11.18;;;;;;;;;;5129107;28;20102;-60
2022/10/16 21:34:28;;;;;;;20.13;11.88;;;;;;;;;;5129048;28;20099;-71
2022/10/16 21:36:54;;;;;;;18.77;10.45;;;;;;;;;;5128642;28;20549;-61
2022/10/16 21:39:20;;;;;;;20.45;11.05;;;;;;;;;;5128564;28;20037;-72
2022/10/16 21:41:49;;;;;;;18.88;10.32;;;;;;;;;;5129039;28;20037;-72
2022/10/16 21:44:15;;;;;;;21.90;10.63;;;;;;;;;;5128871;28;20531;-69
2022/10/16 21:46:42;;;;;;;19.20;10.68;;;;;;;;;;5128728;28;20357;-61
2022/10/16 21:49:12;;;;;;;17.90;11.18;;;;;;;;;;5128828;28;20035;-61
2022/10/16 21:51:39;;;;;;;19.10;10.63;;;;;;;;;;5129043;28;20022;-62
2022/10/16 21:54:07;;;;;;;20.73;10.77;;;;;;;;;;5128330;28;20558;-67
2022/10/16 21:56:33;;;;;;;21.80;10.45;;;;;;;;;;5128579;28;20036;-61
2022/10/16 21:58:59;;;;;;;21.80;10.73;;;;;;;;;;5128442;28;20028;-63
2022/10/16 22:01:26;;;;;;;18.05;10.55;;;;;;;;;;5109924;28;20027;-61
2022/10/16 22:03:53;;;;;;;19.05;10.20;;;;;;;;;;5109834;28;20030;-61
2022/10/16 22:06:20;;;;;;;16.90;9.98;;;;;;;;;;5128280;28;20080;-60
2022/10/16 22:08:47;;;;;;;16.95;10.18;;;;;;;;;;5128240;28;20023;-61
2022/10/16 22:11:15;;;;;;;19.58;9.85;;;;;;;;;;5128424;28;20118;-62
2022/10/16 22:13:41;;;;;;;16.92;9.88;;;;;;;;;;5128185;28;20051;-61
2022/10/16 22:16:08;;;;;;;20.15;9.85;;;;;;;;;;5127666;28;20043;-61
2022/10/16 22:18:34;;;;;;;18.30;9.73;;;;;;;;;;5127897;28;20027;-60
2022/10/16 22:21:01;;;;;;;16.38;10.20;;;;;;;;;;5128196;28;20128;-61
2022/10/16 22:23:27;;;;;;;17.58;10.25;;;;;;;;;;5127768;28;20466;-64
2022/10/16 22:25:58;;;;;;;20.42;10.07;;;;;;;;;;5127909;28;20537;-59
2022/10/16 22:28:24;;;;;;;16.08;10.10;;;;;;;;;;5097655;28;20038;-71
2022/10/16 22:30:50;;;;;;;16.98;9.85;;;;;;;;;;5113722;28;20020;-65
2022/10/16 22:33:16;;;;;;;18.40;10.07;;;;;;;;;;5113907;28;20497;-71
2022/10/16 22:35:42;;;;;;;20.73;10.20;;;;;;;;;;5114311;28;20031;-63
2022/10/16 22:38:08;;;;;;;17.02;9.90;;;;;;;;;;5113834;28;20028;-71
2022/10/16 22:40:37;;;;;;;14.95;9.40;;;;;;;;;;5113847;28;20031;-61
2022/10/16 22:43:04;;;;;;;19.65;11.30;;;;;;;;;;5113893;28;20038;-72
2022/10/16 22:45:31;;;;;;;20.17;11.05;;;;;;;;;;5113758;28;20482;-69
2022/10/16 22:47:57;;;;;;;19.50;10.52;;;;;;;;;;5113799;28;20035;-71
2022/10/16 22:50:23;;;;;;;14.20;8.93;;;;;;;;;;5113890;28;20024;-61
2022/10/16 22:52:49;;;;;;;20.70;9.48;;;;;;;;;;5113531;28;20129;-61
2022/10/16 22:55:15;;;;;;;18.08;9.32;;;;;;;;;;5113910;28;20030;-61
2022/10/16 22:57:41;;;;;;;17.05;9.75;;;;;;;;;;5113905;28;20028;-65
2022/10/16 23:00:09;;;;;;;17.42;9.80;;;;;;;;;;5113080;28;20020;-70
2022/10/16 23:02:35;;;;;;;17.42;9.52;;;;;;;;;;5113489;28;20051;-60
2022/10/16 23:05:01;;;;;;;16.15;8.90;;;;;;;;;;5113564;28;20024;-62
2022/10/16 23:07:27;;;;;;;16.15;9.20;;;;;;;;;;5113647;28;20028;-71
2022/10/16 23:09:54;;;;;;;15.60;9.23;;;;;;;;;;5113534;28;20027;-71
2022/10/16 23:12:22;;;;;;;14.55;8.93;;;;;;;;;;5113619;28;20085;-61
2022/10/16 23:14:48;;;;;;;19.48;9.10;;;;;;;;;;5113683;28;20012;-60
2022/10/16 23:17:14;;;;;;;15.50;9.55;;;;;;;;;;5113395;28;20075;-61
2022/10/16 23:19:40;;;;;;;17.33;9.63;;;;;;;;;;5113359;28;20436;-61
2022/10/16 23:22:06;;;;;;;16.90;9.65;;;;;;;;;;5113065;28;20041;-60
2022/10/16 23:24:32;;;;;;;16.25;9.50;;;;;;;;;;5113536;28;20023;-70
2022/10/16 23:26:58;;;;;;;19.50;9.63;;;;;;;;;;5113499;28;20016;-60
2022/10/16 23:29:24;;;;;;;14.70;8.90;;;;;;;;;;5113496;28;20027;-69
2022/10/16 23:31:50;;;;;;;15.30;9.68;;;;;;;;;;5113282;28;20027;-60
2022/10/16 23:34:16;;;;;;;16.70;9.73;;;;;;;;;;5112807;28;20032;-66
2022/10/16 23:36:43;;;;;;;16.80;9.57;;;;;;;;;;5113062;28;20382;-60
2022/10/16 23:39:09;;;;;;;16.83;9.52;;;;;;;;;;5112299;28;20023;-66
2022/10/16 23:41:35;;;;;;;14.73;8.63;;;;;;;;;;5113017;28;20540;-67
2022/10/16 23:44:01;;;;;;;15.43;9.00;;;;;;;;;;5112770;28;20356;-72
2022/10/16 23:46:27;;;;;;;13.82;8.60;;;;;;;;;;5112951;28;20050;-68
2022/10/16 23:48:53;;;;;;;14.30;8.25;;;;;;;;;;5112903;28;20023;-63
2022/10/16 23:51:19;;;;;;;15.15;8.90;;;;;;;;;;5112933;28;20425;-62
2022/10/16 23:53:46;;;;;;;16.40;8.45;;;;;;;;;;5112832;28;20028;-61
2022/10/16 23:56:12;;;;;;;15.65;8.18;;;;;;;;;;5112807;28;20088;-61
2022/10/16 23:58:38;;;;;;;15.38;9.43;;;;;;;;;;5112810;28;20490;-61
